Time;durP1;ratioP1;P1;durP2;ratioP2;P2;SDS_P1;SDS_P2;PMS_P1;PMS_P2;Temp;Humidity;BMP_temperature;BMP_pressure;BME280_temperature;BME280_humidity;BME280_pressure;Samples;Min_cycle;Max_cycle;Signal;HPM_P1;HPM_P2
2023/01/16 00:01:24;;;;;;;12.43;6.90;;;4.00;99.90;;;;;;4987835;28;20255;-68
2023/01/16 00:03:50;;;;;;;17.05;7.20;;;4.00;99.90;;;;;;5009371;28;20491;-68
2023/01/16 00:06:16;;;;;;;11.40;6.55;;;4.10;99.90;;;;;;5009805;28;20060;-68
2023/01/16 00:08:42;;;;;;;11.95;6.45;;;4.00;99.90;;;;;;5010479;28;20068;-68
2023/01/16 00:11:08;;;;;;;12.40;6.60;;;4.00;99.90;;;;;;5010833;28;20045;-69
2023/01/16 00:13:34;;;;;;;8.73;5.85;;;4.00;99.90;;;;;;5010948;28;20045;-69
2023/01/16 00:16:00;;;;;;;10.27;6.28;;;4.10;99.90;;;;;;5011139;28;20038;-68
2023/01/16 00:18:25;;;;;;;11.10;6.75;;;4.10;99.90;;;;;;5011784;28;20046;-68
2023/01/16 00:20:51;;;;;;;22.05;7.45;;;4.10;99.90;;;;;;5012003;28;20042;-68
2023/01/16 00:23:17;;;;;;;11.73;6.88;;;4.10;99.90;;;;;;5011910;28;20041;-68
2023/01/16 00:25:43;;;;;;;16.08;7.03;;;4.10;99.90;;;;;;5012307;28;20104;-68
2023/01/16 00:28:10;;;;;;;11.63;7.18;;;4.10;99.90;;;;;;4994326;28;20042;-68
2023/01/16 00:30:36;;;;;;;15.00;6.82;;;4.10;99.90;;;;;;5006582;28;20049;-69
2023/01/16 00:33:03;;;;;;;12.45;6.97;;;4.10;99.90;;;;;;5010771;28;20399;-68
2023/01/16 00:35:29;;;;;;;15.98;6.78;;;4.10;99.90;;;;;;5008786;28;20104;-68
2023/01/16 00:37:54;;;;;;;15.25;6.30;;;4.10;99.90;;;;;;5011013;28;20407;-68
2023/01/16 00:40:22;;;;;;;11.40;6.90;;;4.10;99.90;;;;;;5011446;28;20126;-69
2023/01/16 00:42:47;;;;;;;14.65;6.95;;;4.10;99.90;;;;;;5012613;28;20440;-69
2023/01/16 00:45:13;;;;;;;11.52;5.53;;;4.10;99.90;;;;;;5009419;28;20074;-69
2023/01/16 00:47:39;;;;;;;11.55;5.88;;;4.00;99.90;;;;;;5011893;28;20046;-68
2023/01/16 00:50:05;;;;;;;12.98;6.53;;;4.00;99.90;;;;;;5009782;28;20037;-69
2023/01/16 00:52:30;;;;;;;18.55;6.22;;;4.00;99.90;;;;;;5006191;28;20056;-69
2023/01/16 00:54:56;;;;;;;16.38;5.65;;;3.90;99.90;;;;;;5009475;28;20042;-69
2023/01/16 00:57:22;;;;;;;11.10;5.75;;;3.90;99.90;;;;;;5009342;28;20038;-68
2023/01/16 00:59:47;;;;;;;12.98;5.40;;;3.80;99.90;;;;;;5011243;28;20132;-69
2023/01/16 01:02:13;;;;;;;14.60;5.47;;;3.80;99.90;;;;;;5010565;28;20065;-68
2023/01/16 01:04:39;;;;;;;11.10;5.30;;;3.80;99.90;;;;;;5006907;28;20042;-68
2023/01/16 01:07:05;;;;;;;13.02;5.38;;;3.70;99.90;;;;;;5008714;28;20072;-69
2023/01/16 01:09:30;;;;;;;16.13;5.35;;;3.70;99.90;;;;;;4992364;28;20042;-68
2023/01/16 01:11:57;;;;;;;14.43;5.20;;;3.70;99.90;;;;;;5003553;28;20084;-68
2023/01/16 01:14:24;;;;;;;10.85;5.32;;;3.70;99.90;;;;;;5009611;28;20038;-69
2023/01/16 01:16:50;;;;;;;12.25;5.10;;;3.60;99.90;;;;;;5009999;28;20042;-68
2023/01/16 01:19:16;;;;;;;12.38;5.45;;;3.50;99.90;;;;;;5009741;28;20049;-69
2023/01/16 01:21:41;;;;;;;19.05;5.25;;;3.50;99.90;;;;;;5011937;28;20049;-69
2023/01/16 01:24:07;;;;;;;9.88;4.97;;;3.60;99.90;;;;;;5013320;28;20038;-68
2023/01/16 01:26:33;;;;;;;10.93;5.28;;;3.60;99.90;;;;;;5016709;28;20095;-69
2023/01/16 01:28:58;;;;;;;11.13;4.38;;;3.50;99.90;;;;;;5014298;28;20052;-68
2023/01/16 01:31:24;;;;;;;16.85;4.80;;;3.60;99.90;;;;;;5016037;28;20042;-68
2023/01/16 01:33:49;;;;;;;16.55;5.43;;;3.50;99.90;;;;;;5013542;28;20049;-68
2023/01/16 01:36:15;;;;;;;19.55;5.00;;;3.60;99.90;;;;;;5012356;28;20046;-67
2023/01/16 01:38:41;;;;;;;13.68;4.78;;;3.70;99.90;;;;;;5011839;28;20062;-68
2023/01/16 01:41:07;;;;;;;10.23;4.30;;;3.60;99.90;;;;;;5011337;28;20038;-67
2023/01/16 01:43:39;;;;;;;12.23;4.55;;;3.60;99.90;;;;;;5012443;28;20029;-68
2023/01/16 01:46:05;;;;;;;10.70;4.05;;;3.60;99.90;;;;;;5012521;28;20040;-67
2023/01/16 01:48:40;;;;;;;11.50;3.92;;;3.60;99.90;;;;;;5012806;28;20046;-68
2023/01/16 01:51:11;;;;;;;13.23;4.65;;;3.60;99.90;;;;;;5010187;28;20034;-67
2023/01/16 01:53:51;;;;;;;11.15;4.03;;;3.60;99.90;;;;;;5012443;28;20045;-68
2023/01/16 01:56:31;;;;;;;7.30;3.88;;;3.60;99.90;;;;;;5010152;28;20041;-68
2023/01/16 01:59:02;;;;;;;14.40;4.32;;;3.50;99.90;;;;;;5008753;28;20045;-68
2023/01/16 02:01:28;;;;;;;13.73;4.18;;;3.50;99.90;;;;;;5011876;28;20030;-68
2023/01/16 02:04:01;;;;;;;12.50;4.40;;;3.50;99.90;;;;;;5010677;28;20067;-67
2023/01/16 02:06:48;;;;;;;8.30;3.83;;;3.50;99.90;;;;;;5009143;28;21096;-68
2023/01/16 02:09:15;;;;;;;12.48;4.25;;;3.50;99.90;;;;;;5008677;28;20491;-68
2023/01/16 02:11:53;;;;;;;12.00;4.32;;;3.50;99.90;;;;;;5010621;28;20068;-68
2023/01/16 02:14:19;;;;;;;8.85;4.38;;;3.50;99.90;;;;;;5010638;28;20157;-68
2023/01/16 02:19:38;;;;;;;13.68;3.85;;;3.50;99.90;;;;;;5004099;28;20399;-68
2023/01/16 02:22:06;;;;;;;11.65;4.10;;;3.50;99.90;;;;;;4996319;28;20054;-68
2023/01/16 02:24:53;;;;;;;11.02;4.85;;;3.50;99.90;;;;;;5012245;28;20049;-68
2023/01/16 02:27:28;;;;;;;11.52;4.22;;;3.50;99.90;;;;;;5026411;28;20045;-69
2023/01/16 02:30:32;;;;;;;12.85;4.13;;;3.60;99.90;;;;;;5012309;28;20399;-68
2023/01/16 02:33:06;;;;;;;13.10;4.28;;;3.50;99.90;;;;;;4964743;28;20550;-68
2023/01/16 02:35:51;;;;;;;15.45;4.88;;;3.50;99.90;;;;;;4967818;28;20043;-68
2023/01/16 02:38:27;;;;;;;11.23;4.03;;;3.60;99.90;;;;;;4993159;28;20048;-68
2023/01/16 02:41:05;;;;;;;19.67;4.03;;;3.60;99.90;;;;;;5012532;28;20050;-68
2023/01/16 02:43:55;;;;;;;8.87;4.10;;;3.60;99.90;;;;;;5012048;28;20449;-68
2023/01/16 02:46:44;;;;;;;12.43;3.97;;;3.60;99.90;;;;;;5011293;28;20117;-68
2023/01/16 02:49:26;;;;;;;16.33;4.43;;;3.60;99.90;;;;;;5010391;28;20118;-68
2023/01/16 02:52:08;;;;;;;13.05;4.15;;;3.60;99.90;;;;;;5005936;28;20046;-68
2023/01/16 02:55:14;;;;;;;14.27;4.22;;;3.60;99.90;;;;;;5008630;28;20469;-68
2023/01/16 02:57:45;;;;;;;14.38;3.92;;;3.60;99.90;;;;;;5006431;28;20141;-69
2023/01/16 03:00:16;;;;;;;8.90;4.30;;;3.70;99.90;;;;;;4989209;28;20046;-68
2023/01/16 03:02:42;;;;;;;12.50;4.05;;;3.60;99.90;;;;;;5011297;28;20045;-68
2023/01/16 03:05:08;;;;;;;11.40;4.75;;;3.60;99.90;;;;;;5010654;28;20073;-67
2023/01/16 03:07:50;;;;;;;13.70;5.32;;;3.60;99.90;;;;;;5011806;28;20080;-68
2023/01/16 03:10:40;;;;;;;11.80;4.18;;;3.60;99.90;;;;;;5006571;28;20120;-67
2023/01/16 03:13:24;;;;;;;12.43;4.35;;;3.60;99.90;;;;;;5008554;28;20121;-67
2023/01/16 03:16:14;;;;;;;12.20;4.25;;;3.60;99.90;;;;;;5008459;28;20116;-68
2023/01/16 03:18:40;;;;;;;11.90;3.97;;;3.60;99.90;;;;;;5005214;28;20058;-68
2023/01/16 03:21:36;;;;;;;11.30;3.88;;;3.60;99.90;;;;;;5012556;28;20049;-68
2023/01/16 03:24:36;;;;;;;8.82;3.90;;;3.60;99.90;;;;;;5011585;28;20128;-68
2023/01/16 03:27:33;;;;;;;21.38;4.45;;;3.60;99.90;;;;;;5010633;28;20068;-67
2023/01/16 03:30:31;;;;;;;14.38;5.13;;;3.60;99.90;;;;;;5014211;28;20050;-68
2023/01/16 03:33:08;;;;;;;10.55;4.30;;;3.50;99.90;;;;;;5011666;28;20092;-67
2023/01/16 03:35:52;;;;;;;10.70;4.30;;;3.60;99.90;;;;;;5011596;28;20038;-68
2023/01/16 03:38:21;;;;;;;11.02;4.15;;;3.60;99.90;;;;;;5014263;28;20390;-68
2023/01/16 03:40:47;;;;;;;;;;;3.60;99.90;;;;;;5020588;28;20104;-68
2023/01/16 03:43:35;;;;;;;17.27;4.45;;;3.60;99.90;;;;;;5011085;28;19921;-68
2023/01/16 03:46:20;;;;;;;10.90;4.07;;;3.50;99.90;;;;;;5012090;28;20046;-68
2023/01/16 03:49:09;;;;;;;10.07;4.22;;;3.50;99.90;;;;;;5006161;28;20037;-68
2023/01/16 03:51:41;;;;;;;10.83;3.90;;;3.40;99.90;;;;;;5011898;28;20049;-68
2023/01/16 03:54:16;;;;;;;14.07;4.03;;;3.40;99.90;;;;;;5010875;28;20121;-69
2023/01/16 03:56:50;;;;;;;12.15;3.90;;;3.30;99.90;;;;;;5008720;28;20530;-68
2023/01/16 03:59:16;;;;;;;9.75;4.05;;;3.30;99.90;;;;;;5009833;28;20049;-68
2023/01/16 04:02:05;;;;;;;9.75;4.53;;;3.30;99.90;;;;;;5009396;28;20057;-67
2023/01/16 04:05:00;;;;;;;14.90;4.60;;;3.30;99.90;;;;;;5009581;28;20049;-68
2023/01/16 04:07:38;;;;;;;15.93;4.55;;;3.30;99.90;;;;;;5009542;28;20140;-68
2023/01/16 04:10:09;;;;;;;15.77;4.28;;;3.30;99.90;;;;;;5007107;28;20407;-68
2023/01/16 04:12:44;;;;;;;15.10;4.25;;;3.30;99.90;;;;;;5009249;28;20171;-68
2023/01/16 04:15:10;;;;;;;13.10;4.57;;;3.40;99.90;;;;;;5009812;28;20499;-68
2023/01/16 04:17:38;;;;;;;12.15;5.07;;;3.40;99.90;;;;;;5009647;28;20117;-68
2023/01/16 04:20:05;;;;;;;11.38;5.07;;;3.40;99.90;;;;;;5009981;28;20046;-68
2023/01/16 04:22:31;;;;;;;12.77;5.72;;;3.40;99.90;;;;;;5009817;28;20034;-68
2023/01/16 04:24:59;;;;;;;10.82;5.35;;;3.50;99.90;;;;;;5011214;28;20038;-68
2023/01/16 04:27:24;;;;;;;12.13;4.75;;;3.50;99.90;;;;;;5010401;28;20045;-68
2023/01/16 04:29:50;;;;;;;11.80;4.95;;;3.50;99.90;;;;;;5011060;28;20380;-68
2023/01/16 04:32:16;;;;;;;13.13;5.22;;;3.60;99.90;;;;;;5011481;28;20049;-67
2023/01/16 04:34:41;;;;;;;11.05;5.03;;;3.60;99.90;;;;;;5010374;28;20037;-68
2023/01/16 04:37:09;;;;;;;13.68;5.10;;;3.60;99.90;;;;;;5011323;28;20121;-68
2023/01/16 04:39:34;;;;;;;17.02;5.82;;;3.60;99.90;;;;;;5012271;28;20049;-68
2023/01/16 04:42:00;;;;;;;16.25;5.60;;;3.60;99.90;;;;;;5010514;28;20455;-68
2023/01/16 04:44:25;;;;;;;12.93;5.55;;;3.60;99.90;;;;;;5010909;28;20038;-68
2023/01/16 04:46:51;;;;;;;15.50;5.60;;;3.60;99.90;;;;;;5009732;28;20073;-68
2023/01/16 04:49:16;;;;;;;13.98;6.13;;;3.60;99.90;;;;;;5010548;28;20034;-69
2023/01/16 04:51:42;;;;;;;15.98;5.70;;;3.60;99.90;;;;;;5011884;28;20125;-69
2023/01/16 04:54:13;;;;;;;13.32;5.72;;;3.60;99.90;;;;;;5010666;28;20088;-67
2023/01/16 04:56:39;;;;;;;13.95;6.10;;;3.60;99.90;;;;;;5011304;28;20068;-67
2023/01/16 04:59:04;;;;;;;12.73;6.40;;;3.70;99.90;;;;;;5008004;28;20038;-68
2023/01/16 05:01:34;;;;;;;11.75;6.38;;;3.70;99.90;;;;;;5005958;28;20399;-68
2023/01/16 05:04:01;;;;;;;12.98;6.75;;;3.70;99.90;;;;;;5007601;28;20046;-68
2023/01/16 05:06:27;;;;;;;17.42;6.93;;;3.70;99.90;;;;;;5009278;28;20050;-68
2023/01/16 05:08:52;;;;;;;18.23;6.70;;;3.70;99.90;;;;;;5010295;28;20214;-68
2023/01/16 05:11:18;;;;;;;20.67;7.18;;;3.70;99.90;;;;;;5010435;28;20050;-69
2023/01/16 05:13:44;;;;;;;17.65;7.43;;;3.70;99.90;;;;;;5010791;28;20061;-68
2023/01/16 05:16:09;;;;;;;15.98;7.13;;;3.70;99.90;;;;;;5010041;28;20044;-68
2023/01/16 05:18:35;;;;;;;15.02;7.35;;;3.70;99.90;;;;;;5007549;28;20510;-68
2023/01/16 05:21:01;;;;;;;16.92;7.35;;;3.70;99.90;;;;;;5008358;28;20114;-68
2023/01/16 05:23:27;;;;;;;17.95;7.15;;;3.60;99.90;;;;;;5010559;28;20038;-68
2023/01/16 05:25:53;;;;;;;20.08;7.90;;;3.60;99.90;;;;;;5010580;28;20042;-68
2023/01/16 05:28:19;;;;;;;17.23;9.02;;;3.60;99.90;;;;;;5008261;28;20053;-67
2023/01/16 05:30:47;;;;;;;15.90;7.93;;;3.60;99.90;;;;;;5008199;28;20103;-67
2023/01/16 05:33:13;;;;;;;18.38;7.75;;;3.50;99.90;;;;;;5007688;28;20089;-67
2023/01/16 05:35:39;;;;;;;14.43;8.13;;;3.50;99.90;;;;;;5007392;28;20073;-67
2023/01/16 05:38:04;;;;;;;17.38;8.13;;;3.50;99.90;;;;;;5007089;28;20038;-67
2023/01/16 05:40:30;;;;;;;20.67;8.55;;;3.40;99.90;;;;;;5010939;28;20081;-67
2023/01/16 05:42:56;;;;;;;19.77;8.35;;;3.30;99.90;;;;;;5009380;28;20046;-67
2023/01/16 05:45:21;;;;;;;19.10;8.93;;;3.30;99.90;;;;;;5009930;28;20045;-67
2023/01/16 05:47:47;;;;;;;21.95;9.15;;;3.30;99.90;;;;;;5010795;28;20074;-67
2023/01/16 05:50:13;;;;;;;21.65;10.05;;;3.20;99.90;;;;;;5007389;28;20046;-67
2023/01/16 05:52:41;;;;;;;19.63;9.80;;;3.20;99.90;;;;;;5007026;28;20046;-68
2023/01/16 05:55:07;;;;;;;26.27;10.73;;;3.20;99.90;;;;;;5006735;28;20042;-68
2023/01/16 05:57:33;;;;;;;20.90;10.05;;;3.10;99.90;;;;;;5008552;28;20049;-67
2023/01/16 05:59:59;;;;;;;23.58;10.77;;;3.10;99.90;;;;;;5007364;28;20046;-67
2023/01/16 06:02:24;;;;;;;16.83;9.98;;;3.10;99.90;;;;;;5005448;28;20038;-67
2023/01/16 06:04:51;;;;;;;22.05;10.30;;;3.10;99.90;;;;;;5007603;28;20077;-67
2023/01/16 06:07:17;;;;;;;22.13;11.65;;;3.00;99.90;;;;;;5006617;28;20064;-68
2023/01/16 06:09:43;;;;;;;32.60;11.93;;;3.00;99.90;;;;;;5011363;28;20046;-67
2023/01/16 06:12:14;;;;;;;25.05;11.77;;;3.00;99.90;;;;;;5011477;28;20046;-67
2023/01/16 06:14:40;;;;;;;27.30;12.85;;;3.00;99.90;;;;;;4994810;28;20069;-67
2023/01/16 06:17:05;;;;;;;24.83;12.57;;;3.00;99.90;;;;;;5006578;28;20140;-68
2023/01/16 06:19:31;;;;;;;28.70;13.25;;;3.00;99.90;;;;;;5008996;28;20490;-68
2023/01/16 06:21:57;;;;;;;28.38;13.10;;;3.10;99.90;;;;;;5012084;28;20053;-68
2023/01/16 06:24:22;;;;;;;24.58;12.57;;;3.00;99.90;;;;;;5013855;28;20057;-68
2023/01/16 06:26:48;;;;;;;25.60;12.82;;;3.00;99.90;;;;;;5012672;28;20053;-67
2023/01/16 06:29:13;;;;;;;24.45;12.38;;;3.00;99.90;;;;;;5009699;28;20038;-68
2023/01/16 06:31:39;;;;;;;25.73;12.68;;;3.00;99.90;;;;;;5015133;28;20054;-68
2023/01/16 06:34:05;;;;;;;34.35;14.32;;;3.00;99.90;;;;;;5014987;28;20052;-68
2023/01/16 06:36:30;;;;;;;31.13;13.35;;;3.10;99.90;;;;;;5014957;28;20122;-68
2023/01/16 06:38:56;;;;;;;28.95;14.40;;;3.10;99.90;;;;;;5012779;28;20064;-68
2023/01/16 06:41:21;;;;;;;32.90;15.10;;;3.10;99.90;;;;;;5014257;28;20478;-69
2023/01/16 06:43:47;;;;;;;33.63;15.15;;;3.20;99.90;;;;;;5013693;28;20049;-67
2023/01/16 06:46:13;;;;;;;29.10;14.45;;;3.20;99.90;;;;;;5014500;28;20080;-68
2023/01/16 06:48:38;;;;;;;32.03;14.43;;;3.20;99.90;;;;;;5009768;28;20387;-66
2023/01/16 06:51:04;;;;;;;28.17;14.07;;;3.30;99.90;;;;;;5013612;28;20048;-67
2023/01/16 06:53:30;;;;;;;26.77;13.23;;;3.30;99.90;;;;;;5003532;28;20129;-67
2023/01/16 06:55:55;;;;;;;22.80;12.68;;;3.30;99.90;;;;;;5006892;28;20299;-68
2023/01/16 06:58:21;;;;;;;22.77;12.30;;;3.20;99.90;;;;;;5009294;28;20033;-68
2023/01/16 07:00:50;;;;;;;28.88;14.30;;;3.20;99.90;;;;;;5010202;28;20046;-68
2023/01/16 07:03:17;;;;;;;24.27;12.68;;;3.20;99.90;;;;;;5012114;28;20525;-68
2023/01/16 07:05:45;;;;;;;21.98;12.15;;;3.20;99.90;;;;;;5012452;28;20058;-68
2023/01/16 07:08:10;;;;;;;26.88;11.93;;;3.10;99.90;;;;;;5012500;28;20046;-68
2023/01/16 07:10:36;;;;;;;27.05;11.85;;;3.10;99.90;;;;;;5013158;28;20562;-67
2023/01/16 07:13:03;;;;;;;24.85;11.27;;;3.10;99.90;;;;;;5013252;28;20042;-68
2023/01/16 07:24:09;;;;;;;24.83;12.35;;;3.00;99.90;;;;;;5009173;28;20049;-68
2023/01/16 07:26:39;;;;;;;26.45;12.50;;;3.00;99.90;;;;;;4994886;28;20054;-68
2023/01/16 07:29:05;;;;;;;30.08;14.70;;;3.00;99.90;;;;;;5008088;28;20042;-70
2023/01/16 07:31:32;;;;;;;33.30;15.20;;;3.00;99.90;;;;;;5006011;28;20046;-69
2023/01/16 07:33:58;;;;;;;31.77;13.93;;;3.00;99.90;;;;;;5008971;28;20041;-69
2023/01/16 07:36:23;;;;;;;27.38;12.32;;;3.00;99.90;;;;;;5008344;28;20437;-68
2023/01/16 07:38:49;;;;;;;31.92;11.88;;;2.90;99.90;;;;;;5009803;28;20040;-68
2023/01/16 07:41:15;;;;;;;23.45;11.05;;;2.90;99.90;;;;;;5011135;28;20040;-67
2023/01/16 07:43:40;;;;;;;25.48;11.30;;;2.90;99.90;;;;;;5007390;28;20466;-69
2023/01/16 07:46:06;;;;;;;21.52;11.50;;;2.90;99.90;;;;;;5008966;28;20037;-69
2023/01/16 07:48:32;;;;;;;26.85;10.70;;;2.90;99.90;;;;;;5007357;28;20045;-67
2023/01/16 07:50:59;;;;;;;23.13;12.05;;;2.90;99.90;;;;;;5011835;28;20034;-68
2023/01/16 07:53:26;;;;;;;21.50;11.20;;;2.90;99.90;;;;;;5009149;28;20092;-68
2023/01/16 07:55:56;;;;;;;25.80;11.50;;;2.90;99.90;;;;;;5007623;28;20042;-69
2023/01/16 07:58:22;;;;;;;24.77;10.88;;;2.90;99.90;;;;;;5008744;28;20034;-68
2023/01/16 08:00:49;;;;;;;21.98;10.80;;;2.90;99.90;;;;;;5006788;28;20037;-68
2023/01/16 08:03:15;;;;;;;25.98;10.43;;;2.90;99.90;;;;;;5006656;28;20038;-68
2023/01/16 08:05:43;;;;;;;21.50;10.88;;;2.90;99.90;;;;;;5007228;28;20526;-68
2023/01/16 08:08:09;;;;;;;19.05;10.48;;;2.90;99.90;;;;;;5011099;28;20042;-69
2023/01/16 08:10:34;;;;;;;23.67;11.07;;;2.90;99.90;;;;;;4988579;28;20891;-69
2023/01/16 08:13:00;;;;;;;26.63;11.20;;;2.90;99.90;;;;;;5012199;28;20117;-70
2023/01/16 08:15:26;;;;;;;26.00;10.48;;;2.90;99.90;;;;;;5006029;28;20124;-69
2023/01/16 08:17:51;;;;;;;20.95;9.18;;;2.90;99.90;;;;;;5011764;28;20044;-69
2023/01/16 08:20:17;;;;;;;24.77;9.77;;;2.90;99.90;;;;;;5009955;28;20491;-69
2023/01/16 08:22:45;;;;;;;23.02;9.57;;;2.90;99.90;;;;;;5011836;28;20104;-69
2023/01/16 08:25:11;;;;;;;29.58;9.65;;;2.90;99.90;;;;;;5009606;28;20427;-69
2023/01/16 08:27:36;;;;;;;26.63;10.15;;;3.00;99.90;;;;;;5011726;28;20103;-69
2023/01/16 08:30:04;;;;;;;23.67;9.43;;;3.00;99.90;;;;;;5007231;28;20088;-68
2023/01/16 08:32:29;;;;;;;23.42;9.88;;;3.00;99.90;;;;;;4989178;28;20388;-69
2023/01/16 08:34:55;;;;;;;20.27;9.00;;;3.00;99.90;;;;;;5006615;28;20045;-69
2023/01/16 08:37:21;;;;;;;17.50;9.68;;;3.20;99.90;;;;;;5003139;28;20080;-68
2023/01/16 08:39:46;;;;;;;24.95;10.05;;;3.10;99.90;;;;;;5008731;28;20434;-70
2023/01/16 08:53:09;;;;;;;21.45;9.43;;;3.20;99.90;;;;;;5003209;28;20140;-70
2023/01/16 08:55:35;;;;;;;20.85;9.35;;;3.20;99.90;;;;;;5007289;28;20161;-70
2023/01/16 08:58:01;;;;;;;20.73;9.77;;;3.20;99.90;;;;;;5008884;28;20104;-70
2023/01/16 09:00:28;;;;;;;25.08;9.90;;;3.30;99.90;;;;;;5004638;28;20054;-70
2023/01/16 09:02:55;;;;;;;20.00;8.50;;;3.30;99.90;;;;;;5006345;28;20510;-69
2023/01/16 09:05:21;;;;;;;28.63;9.63;;;3.40;99.90;;;;;;5007091;28;20522;-69
2023/01/16 09:07:47;;;;;;;19.67;8.82;;;3.40;99.90;;;;;;5010136;28;20127;-68
2023/01/16 09:10:13;;;;;;;16.25;9.20;;;3.40;99.90;;;;;;4991155;28;20502;-69
2023/01/16 09:15:24;;;;;;;25.27;9.60;;;3.40;99.90;;;;;;5002192;28;20567;-69
2023/01/16 09:17:49;;;;;;;17.60;9.02;;;3.50;99.90;;;;;;5004716;28;20030;-69
2023/01/16 09:20:15;;;;;;;16.45;8.50;;;3.50;99.90;;;;;;4998782;28;20129;-70
2023/01/16 09:22:41;;;;;;;18.00;8.40;;;3.50;99.90;;;;;;5002727;28;20053;-70
2023/01/16 09:25:07;;;;;;;19.60;8.38;;;3.50;99.90;;;;;;5009143;28;20546;-71
2023/01/16 09:27:33;;;;;;;21.80;9.63;;;3.50;99.90;;;;;;5002838;28;20125;-69
2023/01/16 09:29:58;;;;;;;15.05;8.15;;;3.50;99.90;;;;;;5001934;28;20042;-71
2023/01/16 09:32:24;;;;;;;16.40;7.40;;;3.60;99.90;;;;;;5001494;28;20037;-71
2023/01/16 09:34:50;;;;;;;19.10;8.77;;;3.60;99.90;;;;;;5007221;28;20470;-70
2023/01/16 09:37:16;;;;;;;15.93;7.97;;;3.60;99.90;;;;;;5009085;28;20042;-70
2023/01/16 09:39:42;;;;;;;17.13;7.88;;;3.70;99.90;;;;;;5007777;28;20795;-69
2023/01/16 09:45:06;;;;;;;14.98;7.15;;;3.70;99.90;;;;;;5004349;28;20054;-71
2023/01/16 09:47:32;;;;;;;12.82;6.68;;;3.90;99.90;;;;;;5008003;28;20053;-69
2023/01/16 09:50:05;;;;;;;11.93;6.50;;;3.70;99.90;;;;;;5008284;28;20049;-70
2023/01/16 09:58:36;;;;;;;16.58;6.80;;;3.70;99.90;;;;;;5009606;28;20057;-70
2023/01/16 10:01:20;;;;;;;10.20;5.50;;;3.80;99.90;;;;;;5013170;28;20128;-70
2023/01/16 10:03:46;;;;;;;13.25;5.82;;;3.80;99.90;;;;;;5010712;28;20100;-69
2023/01/16 10:06:38;;;;;;;11.60;6.43;;;3.90;99.90;;;;;;5010066;28;20062;-69
2023/01/16 10:09:06;;;;;;;12.45;5.95;;;3.80;99.90;;;;;;5007186;28;20037;-70
2023/01/16 10:11:58;;;;;;;10.68;5.60;;;3.90;99.90;;;;;;5013266;28;20042;-70
2023/01/16 10:15:01;;;;;;;11.95;5.53;;;3.90;99.90;;;;;;5008818;28;20048;-69
2023/01/16 10:17:51;;;;;;;12.85;5.20;;;3.80;99.90;;;;;;5007018;28;20589;-69
2023/01/16 10:20:31;;;;;;;9.85;5.38;;;3.90;99.90;;;;;;5009631;28;20049;-70
2023/01/16 10:22:57;;;;;;;12.75;5.53;;;3.90;99.90;;;;;;5004372;28;20050;-70
2023/01/16 10:25:30;;;;;;;18.23;6.70;;;3.90;99.90;;;;;;5017910;28;20038;-70
2023/01/16 10:28:28;;;;;;;9.55;5.18;;;3.90;99.90;;;;;;5016170;28;20176;-70
2023/01/16 10:31:10;;;;;;;13.82;5.70;;;3.90;99.90;;;;;;5005105;28;20502;-70
2023/01/16 10:33:43;;;;;;;10.70;5.53;;;3.90;99.90;;;;;;5010761;28;20065;-70
2023/01/16 10:36:12;;;;;;;10.30;5.18;;;3.80;99.90;;;;;;5016422;28;20041;-69
2023/01/16 10:38:45;;;;;;;9.48;5.20;;;3.90;99.90;;;;;;5014829;28;20511;-70
2023/01/16 10:49:41;;;;;;;11.13;5.15;;;3.90;99.90;;;;;;5006664;28;20140;-68
2023/01/16 10:52:07;;;;;;;9.68;4.65;;;3.90;99.90;;;;;;5012498;28;20153;-68
2023/01/16 10:54:33;;;;;;;11.45;4.70;;;3.90;99.90;;;;;;5008541;28;20038;-69
2023/01/16 10:57:03;;;;;;;11.82;4.72;;;3.90;99.90;;;;;;5009355;28;20088;-69
2023/01/16 10:59:31;;;;;;;10.32;4.80;;;3.90;99.90;;;;;;5007788;28;20054;-70
2023/01/16 11:02:00;;;;;;;9.30;4.22;;;3.90;99.90;;;;;;5006258;28;20092;-71
2023/01/16 11:04:35;;;;;;;7.82;4.43;;;3.80;99.90;;;;;;5004308;28;20037;-70
2023/01/16 11:07:15;;;;;;;11.32;4.95;;;3.80;99.90;;;;;;5008689;28;20046;-71
2023/01/16 11:09:44;;;;;;;8.75;4.32;;;3.80;99.90;;;;;;5005970;28;20388;-71
2023/01/16 11:20:41;;;;;;;5.63;2.88;;;3.60;99.90;;;;;;5007523;28;20046;-70
2023/01/16 11:23:24;;;;;;;6.90;3.30;;;3.50;99.90;;;;;;5008047;28;20037;-70
2023/01/16 11:25:52;;;;;;;4.88;2.50;;;3.40;99.90;;;;;;5008862;28;20054;-72
2023/01/16 11:28:22;;;;;;;5.53;2.83;;;3.50;99.90;;;;;;5005254;28;20080;-71
2023/01/16 11:30:51;;;;;;;4.82;2.55;;;3.40;99.90;;;;;;4996312;28;20398;-71
2023/01/16 11:33:24;;;;;;;7.28;2.60;;;3.30;99.90;;;;;;5014657;28;20125;-71
2023/01/16 11:35:57;;;;;;;5.30;2.50;;;3.30;99.90;;;;;;5014977;28;20056;-69
2023/01/16 11:38:25;;;;;;;4.55;2.65;;;3.30;99.90;;;;;;5013955;28;20553;-70
2023/01/16 11:40:55;;;;;;;7.47;3.03;;;3.30;99.90;;;;;;5014977;28;20120;-70
2023/01/16 11:46:21;;;;;;;6.47;3.27;;;3.20;99.90;;;;;;5005398;28;20041;-70
2023/01/16 11:48:53;;;;;;;5.80;2.72;;;3.20;99.90;;;;;;5009297;28;20304;-69
2023/01/16 11:51:23;;;;;;;8.98;3.53;;;3.20;99.90;;;;;;5008307;28;20034;-70
2023/01/16 11:53:51;;;;;;;4.57;2.78;;;3.20;99.90;;;;;;5011989;28;20054;-70
2023/01/16 11:56:41;;;;;;;5.75;3.20;;;3.20;99.90;;;;;;5010630;28;20491;-70
2023/01/16 11:59:24;;;;;;;7.05;2.63;;;3.30;99.90;;;;;;5007984;28;20054;-69
2023/01/16 12:04:37;;;;;;;8.02;2.80;;;3.30;99.90;;;;;;5012741;28;20050;-69
2023/01/16 12:07:22;;;;;;;5.65;2.40;;;3.20;99.90;;;;;;5015883;28;20069;-69
2023/01/16 12:10:03;;;;;;;7.72;2.67;;;3.30;99.90;;;;;;5012843;28;20430;-69
2023/01/16 12:15:31;;;;;;;6.80;2.95;;;3.30;99.90;;;;;;5011104;28;20053;-70
2023/01/16 12:18:08;;;;;;;5.07;2.97;;;3.30;99.90;;;;;;5012318;28;20038;-70
2023/01/16 12:20:53;;;;;;;6.00;2.92;;;3.30;99.90;;;;;;4995282;28;20050;-70
2023/01/16 12:23:32;;;;;;;9.65;3.05;;;3.30;99.90;;;;;;4999565;28;20125;-70
2023/01/16 12:26:20;;;;;;;5.82;3.15;;;3.40;99.90;;;;;;5018644;28;20411;-69
2023/01/16 12:29:14;;;;;;;14.00;7.63;;;3.30;99.90;;;;;;5015280;28;20131;-70
2023/01/16 12:31:50;;;;;;;12.38;4.72;;;3.40;99.90;;;;;;5023983;28;20042;-70
2023/01/16 12:34:43;;;;;;;5.75;3.13;;;3.40;99.90;;;;;;5019002;28;20057;-69
2023/01/16 12:37:34;;;;;;;9.45;3.20;;;3.40;99.90;;;;;;5023052;28;20053;-70
2023/01/16 12:40:28;;;;;;;7.38;3.42;;;3.40;99.90;;;;;;5027748;28;20499;-71
2023/01/16 12:45:54;;;;;;;5.93;3.63;;;3.40;99.90;;;;;;5005527;28;20479;-70
2023/01/16 12:48:29;;;;;;;5.28;3.13;;;3.40;99.90;;;;;;5002694;28;20124;-70
2023/01/16 12:51:33;;;;;;;9.85;3.47;;;3.40;99.90;;;;;;5011133;28;20041;-70
2023/01/16 12:54:05;;;;;;;7.93;3.67;;;3.50;99.90;;;;;;5007006;28;20049;-70
2023/01/16 12:56:58;;;;;;;8.40;3.70;;;3.40;99.90;;;;;;5023270;28;20046;-71
2023/01/16 12:59:43;;;;;;;5.13;3.67;;;3.50;99.90;;;;;;5008527;28;20042;-70
2023/01/16 13:02:39;;;;;;;8.35;3.60;;;3.50;99.90;;;;;;5009464;28;20042;-71
2023/01/16 13:05:17;;;;;;;8.13;4.15;;;3.50;99.90;;;;;;5010707;28;20088;-71
2023/01/16 13:08:15;;;;;;;7.70;4.28;;;3.60;99.90;;;;;;5009143;28;20046;-71
2023/01/16 13:13:36;;;;;;;11.50;4.65;;;3.70;99.90;;;;;;5009845;28;20614;-70
2023/01/16 13:16:17;;;;;;;8.80;4.00;;;3.70;99.90;;;;;;5010189;28;20076;-70
2023/01/16 13:18:50;;;;;;;8.60;4.45;;;3.70;99.90;;;;;;5011843;28;20042;-70
2023/01/16 13:21:21;;;;;;;7.68;4.82;;;3.70;99.90;;;;;;5014064;28;20084;-71
2023/01/16 13:23:58;;;;;;;13.73;4.97;;;3.70;99.90;;;;;;5011226;28;20399;-72
2023/01/16 13:26:25;;;;;;;10.00;5.07;;;3.80;99.90;;;;;;5015357;28;20132;-71
2023/01/16 13:29:01;;;;;;;12.60;4.90;;;3.80;99.90;;;;;;5010323;28;20073;-71
2023/01/16 13:31:40;;;;;;;18.45;9.95;;;3.70;99.90;;;;;;5008031;28;20082;-71
2023/01/16 13:34:13;;;;;;;;;;;3.80;99.90;;;;;;5014623;28;20084;-71
2023/01/16 13:36:56;;;;;;;8.95;5.40;;;3.80;99.90;;;;;;5014399;28;20063;-71
2023/01/16 13:39:40;;;;;;;11.10;5.90;;;3.80;99.90;;;;;;5011990;28;20054;-72
2023/01/16 13:42:10;;;;;;;12.07;7.10;;;3.80;99.90;;;;;;5025714;28;20045;-71
2023/01/16 13:47:29;;;;;;;11.65;6.82;;;3.80;99.90;;;;;;5015615;28;20054;-71
2023/01/16 13:50:12;;;;;;;16.33;8.23;;;3.90;99.90;;;;;;5010871;28;20085;-73
2023/01/16 13:52:42;;;;;;;22.05;8.95;;;3.90;99.90;;;;;;5014411;28;20061;-71
2023/01/16 13:55:42;;;;;;;12.48;6.70;;;3.90;99.90;;;;;;5015322;28;20038;-74
2023/01/16 13:58:20;;;;;;;17.02;7.20;;;3.90;99.90;;;;;;5002772;28;20066;-73
2023/01/16 14:01:04;;;;;;;14.18;7.47;;;3.90;99.90;;;;;;5006105;28;20061;-72
2023/01/16 14:03:32;;;;;;;15.05;7.15;;;3.90;99.90;;;;;;5013319;28;20099;-71
2023/01/16 14:06:09;;;;;;;16.00;7.22;;;4.00;99.90;;;;;;5007491;28;20392;-71
2023/01/16 14:09:11;;;;;;;17.30;6.43;;;4.00;99.90;;;;;;5010115;28;20665;-71
2023/01/16 14:11:38;;;;;;;8.52;5.75;;;3.90;99.90;;;;;;5006257;28;20050;-72
2023/01/16 14:17:52;;;;;;;10.27;4.72;;;4.00;99.90;;;;;;5013696;28;20050;-72
2023/01/16 14:20:42;;;;;;;9.18;5.28;;;4.00;99.90;;;;;;5013268;28;20045;-71
2023/01/16 14:26:06;;;;;;;14.77;6.50;;;4.00;99.90;;;;;;5012879;28;20058;-72